sensor_id;sensor_type;location;lat;lon;timestamp;P1;durP1;ratioP1;P2;durP2;ratioP2
20080;SDS011;10200;49.232;9.222;2022-07-23T00:01:17;6.40;;;5.80;;
20080;SDS011;10200;49.232;9.222;2022-07-23T00:03:42;8.75;;;5.75;;
20080;SDS011;10200;49.232;9.222;2022-07-23T00:06:08;7.53;;;5.07;;
20080;SDS011;10200;49.232;9.222;2022-07-23T00:08:33;7.25;;;4.97;;
20080;SDS011;10200;49.232;9.222;2022-07-23T00:10:59;6.82;;;6.10;;
20080;SDS011;10200;49.232;9.222;2022-07-23T00:13:25;7.13;;;5.53;;
20080;SDS011;10200;49.232;9.222;2022-07-23T00:15:51;7.53;;;5.40;;
20080;SDS011;10200;49.232;9.222;2022-07-23T00:18:17;9.02;;;5.22;;
20080;SDS011;10200;49.232;9.222;2022-07-23T00:20:43;8.43;;;5.90;;
20080;SDS011;10200;49.232;9.222;2022-07-23T00:23:08;6.05;;;4.63;;
20080;SDS011;10200;49.232;9.222;2022-07-23T00:25:34;10.60;;;5.43;;
20080;SDS011;10200;49.232;9.222;2022-07-23T00:28:00;6.18;;;5.57;;
20080;SDS011;10200;49.232;9.222;2022-07-23T00:30:26;6.28;;;5.55;;
20080;SDS011;10200;49.232;9.222;2022-07-23T00:32:55;8.38;;;5.50;;
20080;SDS011;10200;49.232;9.222;2022-07-23T00:35:22;7.60;;;5.53;;
20080;SDS011;10200;49.232;9.222;2022-07-23T00:37:52;6.45;;;5.85;;
20080;SDS011;10200;49.232;9.222;2022-07-23T00:40:18;5.90;;;5.40;;
20080;SDS011;10200;49.232;9.222;2022-07-23T00:42:44;9.10;;;5.38;;
20080;SDS011;10200;49.232;9.222;2022-07-23T00:45:10;6.47;;;5.85;;
20080;SDS011;10200;49.232;9.222;2022-07-23T00:47:36;7.43;;;5.30;;
20080;SDS011;10200;49.232;9.222;2022-07-23T00:50:05;6.43;;;4.93;;
20080;SDS011;10200;49.232;9.222;2022-07-23T00:52:33;6.20;;;5.32;;
20080;SDS011;10200;49.232;9.222;2022-07-23T00:54:59;8.48;;;5.53;;
20080;SDS011;10200;49.232;9.222;2022-07-23T00:57:25;6.32;;;5.50;;
20080;SDS011;10200;49.232;9.222;2022-07-23T00:59:51;6.25;;;5.65;;
20080;SDS011;10200;49.232;9.222;2022-07-23T01:02:16;6.28;;;5.43;;
20080;SDS011;10200;49.232;9.222;2022-07-23T01:04:42;5.57;;;4.68;;
20080;SDS011;10200;49.232;9.222;2022-07-23T01:07:08;6.35;;;5.72;;
20080;SDS011;10200;49.232;9.222;2022-07-23T01:09:33;6.15;;;5.10;;
20080;SDS011;10200;49.232;9.222;2022-07-23T01:11:59;8.40;;;5.53;;
20080;SDS011;10200;49.232;9.222;2022-07-23T01:14:25;7.05;;;5.82;;
20080;SDS011;10200;49.232;9.222;2022-07-23T01:16:51;8.32;;;6.28;;
20080;SDS011;10200;49.232;9.222;2022-07-23T01:19:17;6.80;;;5.65;;
20080;SDS011;10200;49.232;9.222;2022-07-23T01:21:44;6.53;;;4.90;;
20080;SDS011;10200;49.232;9.222;2022-07-23T01:24:12;6.85;;;6.15;;
20080;SDS011;10200;49.232;9.222;2022-07-23T01:26:38;6.60;;;5.90;;
20080;SDS011;10200;49.232;9.222;2022-07-23T01:29:05;6.53;;;5.72;;
20080;SDS011;10200;49.232;9.222;2022-07-23T01:31:31;5.85;;;5.30;;
20080;SDS011;10200;49.232;9.222;2022-07-23T01:33:57;7.68;;;5.85;;
20080;SDS011;10200;49.232;9.222;2022-07-23T01:36:22;6.47;;;5.85;;
20080;SDS011;10200;49.232;9.222;2022-07-23T01:38:48;8.90;;;6.00;;
20080;SDS011;10200;49.232;9.222;2022-07-23T01:41:14;7.13;;;5.45;;
20080;SDS011;10200;49.232;9.222;2022-07-23T01:43:40;7.65;;;6.20;;
20080;SDS011;10200;49.232;9.222;2022-07-23T01:46:05;11.55;;;5.78;;
20080;SDS011;10200;49.232;9.222;2022-07-23T01:48:31;6.30;;;5.63;;
20080;SDS011;10200;49.232;9.222;2022-07-23T01:50:56;6.25;;;5.65;;
20080;SDS011;10200;49.232;9.222;2022-07-23T01:53:22;8.85;;;6.07;;
20080;SDS011;10200;49.232;9.222;2022-07-23T01:55:48;7.05;;;5.78;;
20080;SDS011;10200;49.232;9.222;2022-07-23T01:58:14;6.22;;;5.45;;
20080;SDS011;10200;49.232;9.222;2022-07-23T02:00:40;6.30;;;5.53;;
20080;SDS011;10200;49.232;9.222;2022-07-23T02:03:05;6.82;;;5.78;;
20080;SDS011;10200;49.232;9.222;2022-07-23T02:05:31;6.28;;;5.68;;
20080;SDS011;10200;49.232;9.222;2022-07-23T02:07:57;7.82;;;5.93;;
20080;SDS011;10200;49.232;9.222;2022-07-23T02:10:23;7.93;;;6.00;;
20080;SDS011;10200;49.232;9.222;2022-07-23T02:12:50;6.97;;;6.13;;
20080;SDS011;10200;49.232;9.222;2022-07-23T02:15:15;10.00;;;6.47;;
20080;SDS011;10200;49.232;9.222;2022-07-23T02:17:41;6.70;;;5.82;;
20080;SDS011;10200;49.232;9.222;2022-07-23T02:20:07;10.25;;;6.10;;
20080;SDS011;10200;49.232;9.222;2022-07-23T02:22:33;6.82;;;6.03;;
20080;SDS011;10200;49.232;9.222;2022-07-23T02:24:59;11.13;;;5.80;;
20080;SDS011;10200;49.232;9.222;2022-07-23T02:27:25;6.80;;;6.05;;
20080;SDS011;10200;49.232;9.222;2022-07-23T02:29:50;7.25;;;6.20;;
20080;SDS011;10200;49.232;9.222;2022-07-23T02:32:16;7.68;;;6.30;;
20080;SDS011;10200;49.232;9.222;2022-07-23T02:34:42;6.53;;;5.85;;
20080;SDS011;10200;49.232;9.222;2022-07-23T02:37:07;7.28;;;6.28;;
20080;SDS011;10200;49.232;9.222;2022-07-23T02:39:33;6.60;;;5.93;;
20080;SDS011;10200;49.232;9.222;2022-07-23T02:42:00;7.75;;;5.93;;
20080;SDS011;10200;49.232;9.222;2022-07-23T02:44:26;9.25;;;6.78;;
20080;SDS011;10200;49.232;9.222;2022-07-23T02:46:51;7.10;;;6.40;;
20080;SDS011;10200;49.232;9.222;2022-07-23T02:49:17;7.93;;;7.13;;
20080;SDS011;10200;49.232;9.222;2022-07-23T02:51:42;7.93;;;6.53;;
20080;SDS011;10200;49.232;9.222;2022-07-23T02:54:08;7.38;;;6.15;;
20080;SDS011;10200;49.232;9.222;2022-07-23T02:56:34;7.07;;;5.80;;
20080;SDS011;10200;49.232;9.222;2022-07-23T02:58:59;6.28;;;5.63;;
20080;SDS011;10200;49.232;9.222;2022-07-23T03:01:25;7.63;;;5.82;;
20080;SDS011;10200;49.232;9.222;2022-07-23T03:03:51;7.25;;;6.28;;
20080;SDS011;10200;49.232;9.222;2022-07-23T03:06:16;6.75;;;6.13;;
20080;SDS011;10200;49.232;9.222;2022-07-23T03:08:42;9.10;;;6.20;;
20080;SDS011;10200;49.232;9.222;2022-07-23T03:11:08;6.72;;;6.10;;
20080;SDS011;10200;49.232;9.222;2022-07-23T03:13:36;6.38;;;5.78;;
20080;SDS011;10200;49.232;9.222;2022-07-23T03:16:03;6.90;;;6.10;;
20080;SDS011;10200;49.232;9.222;2022-07-23T03:18:28;7.50;;;6.78;;
20080;SDS011;10200;49.232;9.222;2022-07-23T03:20:54;7.38;;;6.28;;
20080;SDS011;10200;49.232;9.222;2022-07-23T03:23:20;11.35;;;6.53;;
20080;SDS011;10200;49.232;9.222;2022-07-23T03:25:46;9.63;;;6.53;;
20080;SDS011;10200;49.232;9.222;2022-07-23T03:28:13;8.02;;;6.90;;
20080;SDS011;10200;49.232;9.222;2022-07-23T03:30:43;16.20;;;6.78;;
20080;SDS011;10200;49.232;9.222;2022-07-23T03:33:11;8.20;;;6.63;;
20080;SDS011;10200;49.232;9.222;2022-07-23T03:35:44;8.15;;;6.68;;
20080;SDS011;10200;49.232;9.222;2022-07-23T03:38:10;8.45;;;6.35;;
20080;SDS011;10200;49.232;9.222;2022-07-23T03:40:36;8.38;;;6.85;;
20080;SDS011;10200;49.232;9.222;2022-07-23T03:43:02;8.48;;;6.38;;
20080;SDS011;10200;49.232;9.222;2022-07-23T03:45:27;7.50;;;6.40;;
20080;SDS011;10200;49.232;9.222;2022-07-23T03:47:55;21.23;;;9.32;;
20080;SDS011;10200;49.232;9.222;2022-07-23T03:50:21;8.48;;;6.32;;
20080;SDS011;10200;49.232;9.222;2022-07-23T03:52:47;6.70;;;6.10;;
20080;SDS011;10200;49.232;9.222;2022-07-23T03:55:13;9.32;;;6.32;;
20080;SDS011;10200;49.232;9.222;2022-07-23T03:57:39;9.43;;;6.72;;
20080;SDS011;10200;49.232;9.222;2022-07-23T04:00:05;7.78;;;6.90;;
20080;SDS011;10200;49.232;9.222;2022-07-23T04:02:33;7.10;;;6.30;;
20080;SDS011;10200;49.232;9.222;2022-07-23T04:04:59;7.10;;;6.35;;
20080;SDS011;10200;49.232;9.222;2022-07-23T04:07:25;8.93;;;6.90;;
20080;SDS011;10200;49.232;9.222;2022-07-23T04:09:51;8.45;;;6.78;;
20080;SDS011;10200;49.232;9.222;2022-07-23T04:12:17;8.57;;;5.72;;
20080;SDS011;10200;49.232;9.222;2022-07-23T04:14:43;9.27;;;6.78;;
20080;SDS011;10200;49.232;9.222;2022-07-23T04:17:09;7.15;;;6.45;;
20080;SDS011;10200;49.232;9.222;2022-07-23T04:19:34;7.30;;;6.32;;
20080;SDS011;10200;49.232;9.222;2022-07-23T04:22:04;6.72;;;6.00;;
20080;SDS011;10200;49.232;9.222;2022-07-23T04:24:31;7.63;;;6.85;;
20080;SDS011;10200;49.232;9.222;2022-07-23T04:26:57;7.82;;;6.85;;
20080;SDS011;10200;49.232;9.222;2022-07-23T04:29:22;6.57;;;5.95;;
20080;SDS011;10200;49.232;9.222;2022-07-23T04:31:48;8.60;;;5.95;;
20080;SDS011;10200;49.232;9.222;2022-07-23T04:34:14;8.55;;;6.82;;
20080;SDS011;10200;49.232;9.222;2022-07-23T04:36:39;6.97;;;6.05;;
20080;SDS011;10200;49.232;9.222;2022-07-23T04:39:05;17.88;;;7.40;;
20080;SDS011;10200;49.232;9.222;2022-07-23T04:41:31;7.28;;;5.78;;
20080;SDS011;10200;49.232;9.222;2022-07-23T04:43:57;7.10;;;6.07;;
20080;SDS011;10200;49.232;9.222;2022-07-23T04:46:22;6.72;;;6.03;;
20080;SDS011;10200;49.232;9.222;2022-07-23T04:48:48;6.57;;;5.93;;
20080;SDS011;10200;49.232;9.222;2022-07-23T04:51:13;6.07;;;5.22;;
20080;SDS011;10200;49.232;9.222;2022-07-23T04:53:39;9.75;;;6.93;;
20080;SDS011;10200;49.232;9.222;2022-07-23T04:56:05;7.45;;;5.97;;
20080;SDS011;10200;49.232;9.222;2022-07-23T04:58:31;6.38;;;5.38;;
20080;SDS011;10200;49.232;9.222;2022-07-23T05:00:57;7.05;;;5.60;;
20080;SDS011;10200;49.232;9.222;2022-07-23T05:03:23;6.70;;;5.03;;
20080;SDS011;10200;49.232;9.222;2022-07-23T05:05:48;11.60;;;5.75;;
20080;SDS011;10200;49.232;9.222;2022-07-23T05:08:14;10.55;;;5.53;;
20080;SDS011;10200;49.232;9.222;2022-07-23T05:10:40;7.75;;;5.38;;
20080;SDS011;10200;49.232;9.222;2022-07-23T05:13:06;8.25;;;5.07;;
20080;SDS011;10200;49.232;9.222;2022-07-23T05:15:31;6.32;;;4.68;;
20080;SDS011;10200;49.232;9.222;2022-07-23T05:17:57;7.10;;;5.88;;
20080;SDS011;10200;49.232;9.222;2022-07-23T05:20:22;7.70;;;5.30;;
20080;SDS011;10200;49.232;9.222;2022-07-23T05:22:48;5.70;;;4.88;;
20080;SDS011;10200;49.232;9.222;2022-07-23T05:25:14;7.50;;;5.22;;
20080;SDS011;10200;49.232;9.222;2022-07-23T05:27:39;5.22;;;4.72;;
20080;SDS011;10200;49.232;9.222;2022-07-23T05:30:05;6.90;;;6.20;;
20080;SDS011;10200;49.232;9.222;2022-07-23T05:32:32;6.82;;;5.72;;
20080;SDS011;10200;49.232;9.222;2022-07-23T05:34:57;7.75;;;5.05;;
20080;SDS011;10200;49.232;9.222;2022-07-23T05:37:24;8.80;;;5.55;;
20080;SDS011;10200;49.232;9.222;2022-07-23T05:39:50;8.00;;;6.03;;
20080;SDS011;10200;49.232;9.222;2022-07-23T05:42:15;8.93;;;5.88;;
20080;SDS011;10200;49.232;9.222;2022-07-23T05:44:41;12.70;;;7.28;;
20080;SDS011;10200;49.232;9.222;2022-07-23T05:47:07;11.60;;;6.10;;
20080;SDS011;10200;49.232;9.222;2022-07-23T05:49:33;9.68;;;5.65;;
20080;SDS011;10200;49.232;9.222;2022-07-23T05:51:58;8.95;;;6.13;;
20080;SDS011;10200;49.232;9.222;2022-07-23T05:54:29;10.18;;;6.70;;
20080;SDS011;10200;49.232;9.222;2022-07-23T05:56:54;8.32;;;6.60;;
20080;SDS011;10200;49.232;9.222;2022-07-23T05:59:20;9.05;;;6.70;;
20080;SDS011;10200;49.232;9.222;2022-07-23T06:01:45;10.02;;;6.25;;
20080;SDS011;10200;49.232;9.222;2022-07-23T06:04:11;10.27;;;6.93;;
20080;SDS011;10200;49.232;9.222;2022-07-23T06:06:36;7.10;;;5.90;;
20080;SDS011;10200;49.232;9.222;2022-07-23T06:09:02;7.43;;;6.55;;
20080;SDS011;10200;49.232;9.222;2022-07-23T06:11:28;7.88;;;6.82;;
20080;SDS011;10200;49.232;9.222;2022-07-23T06:13:54;6.72;;;5.72;;
20080;SDS011;10200;49.232;9.222;2022-07-23T06:16:20;8.43;;;6.55;;
20080;SDS011;10200;49.232;9.222;2022-07-23T06:18:45;9.10;;;6.45;;
20080;SDS011;10200;49.232;9.222;2022-07-23T06:21:11;8.43;;;6.53;;
20080;SDS011;10200;49.232;9.222;2022-07-23T06:23:36;11.00;;;7.13;;
20080;SDS011;10200;49.232;9.222;2022-07-23T06:26:02;6.90;;;6.10;;
20080;SDS011;10200;49.232;9.222;2022-07-23T06:28:27;9.85;;;6.53;;
20080;SDS011;10200;49.232;9.222;2022-07-23T06:30:53;9.95;;;6.28;;
20080;SDS011;10200;49.232;9.222;2022-07-23T06:33:19;8.10;;;6.18;;
20080;SDS011;10200;49.232;9.222;2022-07-23T06:35:44;8.70;;;7.05;;
20080;SDS011;10200;49.232;9.222;2022-07-23T06:38:10;9.85;;;7.10;;
20080;SDS011;10200;49.232;9.222;2022-07-23T06:40:35;8.85;;;6.60;;
20080;SDS011;10200;49.232;9.222;2022-07-23T06:43:01;9.77;;;6.93;;
20080;SDS011;10200;49.232;9.222;2022-07-23T06:45:27;13.05;;;7.15;;
20080;SDS011;10200;49.232;9.222;2022-07-23T06:47:52;9.13;;;6.68;;
20080;SDS011;10200;49.232;9.222;2022-07-23T06:50:18;7.25;;;6.45;;
20080;SDS011;10200;49.232;9.222;2022-07-23T06:52:44;7.65;;;6.38;;
20080;SDS011;10200;49.232;9.222;2022-07-23T06:55:10;9.90;;;7.63;;
20080;SDS011;10200;49.232;9.222;2022-07-23T06:57:35;10.20;;;7.78;;
20080;SDS011;10200;49.232;9.222;2022-07-23T07:00:01;10.75;;;7.25;;
20080;SDS011;10200;49.232;9.222;2022-07-23T07:02:28;8.43;;;6.35;;
20080;SDS011;10200;49.232;9.222;2022-07-23T07:04:54;8.45;;;6.80;;
20080;SDS011;10200;49.232;9.222;2022-07-23T07:07:21;8.98;;;7.00;;
20080;SDS011;10200;49.232;9.222;2022-07-23T07:09:46;9.40;;;7.03;;
20080;SDS011;10200;49.232;9.222;2022-07-23T07:12:12;9.77;;;6.85;;
20080;SDS011;10200;49.232;9.222;2022-07-23T07:14:38;7.03;;;6.32;;
20080;SDS011;10200;49.232;9.222;2022-07-23T07:17:03;8.43;;;7.22;;
20080;SDS011;10200;49.232;9.222;2022-07-23T07:19:29;8.15;;;7.00;;
20080;SDS011;10200;49.232;9.222;2022-07-23T07:21:54;8.90;;;6.70;;
20080;SDS011;10200;49.232;9.222;2022-07-23T07:24:20;8.07;;;7.00;;
20080;SDS011;10200;49.232;9.222;2022-07-23T07:26:45;8.52;;;6.70;;
20080;SDS011;10200;49.232;9.222;2022-07-23T07:29:11;9.00;;;7.68;;
20080;SDS011;10200;49.232;9.222;2022-07-23T07:31:37;9.07;;;7.22;;
20080;SDS011;10200;49.232;9.222;2022-07-23T07:34:02;10.27;;;6.78;;
20080;SDS011;10200;49.232;9.222;2022-07-23T07:36:28;9.95;;;7.30;;
20080;SDS011;10200;49.232;9.222;2022-07-23T07:38:53;9.02;;;6.97;;
20080;SDS011;10200;49.232;9.222;2022-07-23T07:41:19;9.27;;;7.53;;
20080;SDS011;10200;49.232;9.222;2022-07-23T07:43:48;8.70;;;7.35;;
20080;SDS011;10200;49.232;9.222;2022-07-23T07:46:14;11.18;;;7.47;;
20080;SDS011;10200;49.232;9.222;2022-07-23T07:48:40;7.20;;;6.45;;
20080;SDS011;10200;49.232;9.222;2022-07-23T07:51:06;7.85;;;6.20;;
20080;SDS011;10200;49.232;9.222;2022-07-23T07:53:32;8.48;;;7.03;;
20080;SDS011;10200;49.232;9.222;2022-07-23T07:55:57;7.72;;;6.85;;
20080;SDS011;10200;49.232;9.222;2022-07-23T07:58:23;8.52;;;6.40;;
20080;SDS011;10200;49.232;9.222;2022-07-23T08:00:48;8.07;;;6.45;;
20080;SDS011;10200;49.232;9.222;2022-07-23T08:03:14;9.98;;;6.82;;
20080;SDS011;10200;49.232;9.222;2022-07-23T08:05:40;8.82;;;5.97;;
20080;SDS011;10200;49.232;9.222;2022-07-23T08:08:05;8.30;;;6.72;;
20080;SDS011;10200;49.232;9.222;2022-07-23T08:10:31;8.23;;;6.13;;
20080;SDS011;10200;49.232;9.222;2022-07-23T08:12:57;7.97;;;5.95;;
20080;SDS011;10200;49.232;9.222;2022-07-23T08:15:24;9.30;;;6.68;;
20080;SDS011;10200;49.232;9.222;2022-07-23T08:17:51;7.45;;;6.13;;
20080;SDS011;10200;49.232;9.222;2022-07-23T08:20:18;8.30;;;6.47;;
20080;SDS011;10200;49.232;9.222;2022-07-23T08:25:11;6.50;;;5.63;;
20080;SDS011;10200;49.232;9.222;2022-07-23T08:27:37;6.97;;;5.38;;
20080;SDS011;10200;49.232;9.222;2022-07-23T08:30:03;7.53;;;5.45;;
20080;SDS011;10200;49.232;9.222;2022-07-23T08:32:29;6.68;;;5.68;;
20080;SDS011;10200;49.232;9.222;2022-07-23T08:34:55;7.60;;;5.97;;
20080;SDS011;10200;49.232;9.222;2022-07-23T08:37:20;7.43;;;5.85;;
20080;SDS011;10200;49.232;9.222;2022-07-23T08:39:46;6.03;;;5.43;;
20080;SDS011;10200;49.232;9.222;2022-07-23T08:42:13;6.90;;;5.95;;
20080;SDS011;10200;49.232;9.222;2022-07-23T08:44:40;9.77;;;6.55;;
20080;SDS011;10200;49.232;9.222;2022-07-23T08:47:09;6.93;;;5.65;;
20080;SDS011;10200;49.232;9.222;2022-07-23T08:49:36;6.70;;;6.00;;
20080;SDS011;10200;49.232;9.222;2022-07-23T08:52:03;8.88;;;5.90;;
20080;SDS011;10200;49.232;9.222;2022-07-23T08:54:29;7.97;;;5.63;;
20080;SDS011;10200;49.232;9.222;2022-07-23T08:56:56;8.32;;;6.30;;
20080;SDS011;10200;49.232;9.222;2022-07-23T08:59:22;6.93;;;6.22;;
20080;SDS011;10200;49.232;9.222;2022-07-23T09:01:47;10.35;;;6.32;;
20080;SDS011;10200;49.232;9.222;2022-07-23T09:04:13;7.90;;;6.22;;
20080;SDS011;10200;49.232;9.222;2022-07-23T09:06:39;13.07;;;5.93;;
20080;SDS011;10200;49.232;9.222;2022-07-23T09:09:17;6.35;;;5.55;;
20080;SDS011;10200;49.232;9.222;2022-07-23T09:12:01;6.70;;;6.05;;
20080;SDS011;10200;49.232;9.222;2022-07-23T09:14:44;6.18;;;5.53;;
20080;SDS011;10200;49.232;9.222;2022-07-23T09:17:16;8.50;;;6.18;;
20080;SDS011;10200;49.232;9.222;2022-07-23T09:19:43;6.75;;;5.82;;
20080;SDS011;10200;49.232;9.222;2022-07-23T09:22:23;9.15;;;6.63;;
20080;SDS011;10200;49.232;9.222;2022-07-23T09:25:04;6.68;;;5.97;;
20080;SDS011;10200;49.232;9.222;2022-07-23T09:30:19;6.10;;;5.50;;
20080;SDS011;10200;49.232;9.222;2022-07-23T09:35:52;8.85;;;6.32;;
20080;SDS011;10200;49.232;9.222;2022-07-23T09:38:21;11.73;;;6.57;;
20080;SDS011;10200;49.232;9.222;2022-07-23T09:41:07;7.72;;;6.40;;
20080;SDS011;10200;49.232;9.222;2022-07-23T09:43:36;7.68;;;6.93;;
20080;SDS011;10200;49.232;9.222;2022-07-23T09:48:54;7.65;;;6.40;;
20080;SDS011;10200;49.232;9.222;2022-07-23T09:51:23;7.95;;;6.07;;
20080;SDS011;10200;49.232;9.222;2022-07-23T09:54:02;6.65;;;5.63;;
20080;SDS011;10200;49.232;9.222;2022-07-23T09:56:27;6.93;;;6.20;;
20080;SDS011;10200;49.232;9.222;2022-07-23T09:58:54;7.63;;;6.03;;
20080;SDS011;10200;49.232;9.222;2022-07-23T10:01:40;7.80;;;6.35;;
20080;SDS011;10200;49.232;9.222;2022-07-23T10:04:06;8.50;;;6.38;;
20080;SDS011;10200;49.232;9.222;2022-07-23T10:06:33;7.68;;;6.75;;
20080;SDS011;10200;49.232;9.222;2022-07-23T10:09:01;10.20;;;6.80;;
20080;SDS011;10200;49.232;9.222;2022-07-23T10:11:27;9.15;;;6.70;;
20080;SDS011;10200;49.232;9.222;2022-07-23T10:13:55;7.53;;;6.28;;
20080;SDS011;10200;49.232;9.222;2022-07-23T10:16:23;7.10;;;6.40;;
20080;SDS011;10200;49.232;9.222;2022-07-23T10:18:49;7.13;;;6.43;;
20080;SDS011;10200;49.232;9.222;2022-07-23T10:21:23;7.93;;;6.40;;
20080;SDS011;10200;49.232;9.222;2022-07-23T10:24:17;7.30;;;5.88;;
20080;SDS011;10200;49.232;9.222;2022-07-23T10:26:47;7.78;;;5.80;;
20080;SDS011;10200;49.232;9.222;2022-07-23T10:37:44;5.90;;;5.28;;
20080;SDS011;10200;49.232;9.222;2022-07-23T10:40:15;7.15;;;5.90;;
20080;SDS011;10200;49.232;9.222;2022-07-23T10:42:43;10.35;;;6.43;;
20080;SDS011;10200;49.232;9.222;2022-07-23T10:45:22;8.27;;;6.15;;
20080;SDS011;10200;49.232;9.222;2022-07-23T10:47:52;8.63;;;6.47;;
20080;SDS011;10200;49.232;9.222;2022-07-23T10:50:25;6.78;;;5.25;;
20080;SDS011;10200;49.232;9.222;2022-07-23T10:57:57;8.75;;;5.10;;
20080;SDS011;10200;49.232;9.222;2022-07-23T11:00:30;5.82;;;5.03;;
20080;SDS011;10200;49.232;9.222;2022-07-23T11:02:59;6.47;;;5.38;;
20080;SDS011;10200;49.232;9.222;2022-07-23T11:05:26;5.93;;;5.03;;
20080;SDS011;10200;49.232;9.222;2022-07-23T11:10:34;5.75;;;4.93;;
20080;SDS011;10200;49.232;9.222;2022-07-23T11:13:25;8.30;;;5.68;;
20080;SDS011;10200;49.232;9.222;2022-07-23T11:32:08;6.60;;;4.63;;
20080;SDS011;10200;49.232;9.222;2022-07-23T11:34:50;4.85;;;4.10;;
20080;SDS011;10200;49.232;9.222;2022-07-23T11:37:38;5.10;;;3.85;;
20080;SDS011;10200;49.232;9.222;2022-07-23T11:40:14;6.45;;;4.40;;
20080;SDS011;10200;49.232;9.222;2022-07-23T11:42:51;5.25;;;4.75;;
20080;SDS011;10200;49.232;9.222;2022-07-23T11:45:19;5.22;;;3.78;;
20080;SDS011;10200;49.232;9.222;2022-07-23T11:47:45;4.10;;;3.80;;
20080;SDS011;10200;49.232;9.222;2022-07-23T11:50:10;4.78;;;4.38;;
20080;SDS011;10200;49.232;9.222;2022-07-23T11:52:36;4.20;;;3.90;;
20080;SDS011;10200;49.232;9.222;2022-07-23T11:55:09;4.60;;;4.20;;
20080;SDS011;10200;49.232;9.222;2022-07-23T11:57:37;7.18;;;3.95;;
20080;SDS011;10200;49.232;9.222;2022-07-23T12:00:06;4.13;;;3.72;;
20080;SDS011;10200;49.232;9.222;2022-07-23T12:02:40;9.30;;;5.40;;
20080;SDS011;10200;49.232;9.222;2022-07-23T12:05:08;4.97;;;4.47;;
20080;SDS011;10200;49.232;9.222;2022-07-23T12:07:41;6.75;;;4.72;;
20080;SDS011;10200;49.232;9.222;2022-07-23T12:10:51;5.07;;;4.38;;
20080;SDS011;10200;49.232;9.222;2022-07-23T12:13:06;4.40;;;4.00;;
20080;SDS011;10200;49.232;9.222;2022-07-23T12:15:38;4.93;;;3.95;;
20080;SDS011;10200;49.232;9.222;2022-07-23T12:18:08;5.47;;;4.50;;
20080;SDS011;10200;49.232;9.222;2022-07-23T12:20:36;5.22;;;4.72;;
20080;SDS011;10200;49.232;9.222;2022-07-23T12:23:07;5.85;;;4.70;;
20080;SDS011;10200;49.232;9.222;2022-07-23T12:25:35;6.45;;;4.10;;
20080;SDS011;10200;49.232;9.222;2022-07-23T12:28:07;4.95;;;4.45;;
20080;SDS011;10200;49.232;9.222;2022-07-23T12:30:41;4.70;;;3.72;;
20080;SDS011;10200;49.232;9.222;2022-07-23T12:33:12;5.47;;;4.20;;
20080;SDS011;10200;49.232;9.222;2022-07-23T12:35:44;5.55;;;4.72;;
20080;SDS011;10200;49.232;9.222;2022-07-23T12:38:15;5.28;;;4.75;;
20080;SDS011;10200;49.232;9.222;2022-07-23T12:43:23;5.72;;;4.57;;
20080;SDS011;10200;49.232;9.222;2022-07-23T12:46:03;5.93;;;4.82;;
20080;SDS011;10200;49.232;9.222;2022-07-23T12:48:34;5.10;;;4.60;;
20080;SDS011;10200;49.232;9.222;2022-07-23T12:53:31;5.40;;;4.50;;
20080;SDS011;10200;49.232;9.222;2022-07-23T12:55:59;5.30;;;4.78;;
20080;SDS011;10200;49.232;9.222;2022-07-23T12:58:27;5.45;;;5.00;;
20080;SDS011;10200;49.232;9.222;2022-07-23T13:03:55;6.20;;;5.32;;
20080;SDS011;10200;49.232;9.222;2022-07-23T13:06:24;6.82;;;5.90;;
20080;SDS011;10200;49.232;9.222;2022-07-23T13:08:50;5.97;;;5.38;;
20080;SDS011;10200;49.232;9.222;2022-07-23T13:11:15;5.35;;;4.85;;
20080;SDS011;10200;49.232;9.222;2022-07-23T13:13:41;5.30;;;4.80;;
20080;SDS011;10200;49.232;9.222;2022-07-23T13:16:07;6.32;;;4.72;;
20080;SDS011;10200;49.232;9.222;2022-07-23T13:18:32;6.18;;;5.28;;
20080;SDS011;10200;49.232;9.222;2022-07-23T13:20:58;5.22;;;4.75;;
20080;SDS011;10200;49.232;9.222;2022-07-23T13:23:24;5.93;;;4.90;;
20080;SDS011;10200;49.232;9.222;2022-07-23T13:25:50;7.13;;;5.22;;
20080;SDS011;10200;49.232;9.222;2022-07-23T13:28:16;4.97;;;4.57;;
20080;SDS011;10200;49.232;9.222;2022-07-23T13:30:43;5.32;;;4.57;;
20080;SDS011;10200;49.232;9.222;2022-07-23T13:33:10;8.48;;;5.18;;
20080;SDS011;10200;49.232;9.222;2022-07-23T13:35:36;8.30;;;5.18;;
20080;SDS011;10200;49.232;9.222;2022-07-23T13:38:05;7.78;;;4.40;;
20080;SDS011;10200;49.232;9.222;2022-07-23T13:40:35;6.68;;;5.18;;
20080;SDS011;10200;49.232;9.222;2022-07-23T13:43:03;5.57;;;4.78;;
20080;SDS011;10200;49.232;9.222;2022-07-23T13:45:30;5.80;;;4.72;;
20080;SDS011;10200;49.232;9.222;2022-07-23T13:47:56;5.00;;;4.40;;
20080;SDS011;10200;49.232;9.222;2022-07-23T13:50:22;6.82;;;5.35;;
20080;SDS011;10200;49.232;9.222;2022-07-23T13:52:48;5.15;;;4.68;;
20080;SDS011;10200;49.232;9.222;2022-07-23T13:55:14;7.13;;;4.93;;
20080;SDS011;10200;49.232;9.222;2022-07-23T13:57:40;5.63;;;5.13;;
20080;SDS011;10200;49.232;9.222;2022-07-23T14:00:06;7.28;;;4.82;;
20080;SDS011;10200;49.232;9.222;2022-07-23T14:02:34;5.63;;;4.75;;
20080;SDS011;10200;49.232;9.222;2022-07-23T14:05:02;5.65;;;5.15;;
20080;SDS011;10200;49.232;9.222;2022-07-23T14:07:29;5.32;;;4.75;;
20080;SDS011;10200;49.232;9.222;2022-07-23T14:09:55;6.15;;;4.63;;
20080;SDS011;10200;49.232;9.222;2022-07-23T14:12:20;5.18;;;4.68;;
20080;SDS011;10200;49.232;9.222;2022-07-23T14:14:46;6.43;;;5.65;;
20080;SDS011;10200;49.232;9.222;2022-07-23T14:17:11;5.28;;;4.78;;
20080;SDS011;10200;49.232;9.222;2022-07-23T14:19:38;6.57;;;5.03;;
20080;SDS011;10200;49.232;9.222;2022-07-23T14:22:04;6.15;;;4.95;;
20080;SDS011;10200;49.232;9.222;2022-07-23T14:24:29;6.75;;;4.88;;
20080;SDS011;10200;49.232;9.222;2022-07-23T14:26:55;5.72;;;5.13;;
20080;SDS011;10200;49.232;9.222;2022-07-23T14:29:22;5.03;;;4.53;;
20080;SDS011;10200;49.232;9.222;2022-07-23T14:31:47;6.30;;;5.57;;
20080;SDS011;10200;49.232;9.222;2022-07-23T14:34:13;7.60;;;5.93;;
20080;SDS011;10200;49.232;9.222;2022-07-23T14:36:39;6.78;;;6.10;;
20080;SDS011;10200;49.232;9.222;2022-07-23T14:39:05;6.22;;;5.63;;
20080;SDS011;10200;49.232;9.222;2022-07-23T14:41:33;8.02;;;5.07;;
20080;SDS011;10200;49.232;9.222;2022-07-23T14:43:59;6.40;;;5.40;;
20080;SDS011;10200;49.232;9.222;2022-07-23T14:46:25;5.53;;;4.45;;
20080;SDS011;10200;49.232;9.222;2022-07-23T14:48:51;5.57;;;4.95;;
20080;SDS011;10200;49.232;9.222;2022-07-23T14:51:17;6.97;;;5.55;;
20080;SDS011;10200;49.232;9.222;2022-07-23T14:53:43;5.63;;;4.53;;
20080;SDS011;10200;49.232;9.222;2022-07-23T14:56:08;5.65;;;5.15;;
20080;SDS011;10200;49.232;9.222;2022-07-23T14:58:34;5.45;;;4.70;;
20080;SDS011;10200;49.232;9.222;2022-07-23T15:01:00;5.80;;;4.90;;
20080;SDS011;10200;49.232;9.222;2022-07-23T15:03:26;6.20;;;5.28;;
20080;SDS011;10200;49.232;9.222;2022-07-23T15:05:51;5.85;;;5.22;;
20080;SDS011;10200;49.232;9.222;2022-07-23T15:08:17;7.40;;;5.72;;
20080;SDS011;10200;49.232;9.222;2022-07-23T15:10:42;6.15;;;5.55;;
20080;SDS011;10200;49.232;9.222;2022-07-23T15:13:08;5.28;;;4.78;;
20080;SDS011;10200;49.232;9.222;2022-07-23T15:15:34;5.53;;;4.97;;
20080;SDS011;10200;49.232;9.222;2022-07-23T15:17:59;6.88;;;5.63;;
20080;SDS011;10200;49.232;9.222;2022-07-23T15:20:25;6.60;;;6.00;;
20080;SDS011;10200;49.232;9.222;2022-07-23T15:22:51;6.07;;;5.47;;
20080;SDS011;10200;49.232;9.222;2022-07-23T15:25:16;5.68;;;5.25;;
20080;SDS011;10200;49.232;9.222;2022-07-23T15:27:42;7.28;;;5.90;;
20080;SDS011;10200;49.232;9.222;2022-07-23T15:30:07;5.82;;;5.22;;
20080;SDS011;10200;49.232;9.222;2022-07-23T15:32:33;7.13;;;5.93;;
20080;SDS011;10200;49.232;9.222;2022-07-23T15:34:59;5.68;;;5.18;;
20080;SDS011;10200;49.232;9.222;2022-07-23T15:37:25;6.10;;;5.50;;